Accueil
METAR-TAF:

METAR-TAF

Aéroports :

Lleida, Espagne

Lleida-Alguaire

latitude: 41-43-40N, longitude: 000-32-09E, altitude: 350 m

Observation

Le bulletin a été fait il y a 6 heures et 16 minutes, à 13:00 UTC
Vent 1 kt de direction variable
Température 13°C
Humidité 54%
Pression 1022 hPa
Visibilité 10 km ou plus
pas de nuages en-dessous de 1500 mètres et pas de cumulonimbus.

METAR: LEDA 211300Z VRB01KT CAVOK 13/04 Q1022

Heure: 20:16 (19:16 UTC)

Prévision

Le bulletin a été fait il y a 5 heures et 16 minutes, à 14:00 UTC
Prévision valable du 21 à 15 UTC au 22 à 15 UTC
Vent 4 kt de direction variable
Visibilité 10 km ou plus
pas de nuages en-dessous de 1500 mètres et pas de cumulonimbus.

TAF: LEDA 211400Z 2115/2215 VRB04KT CAVOK TX16/2213Z TNM01/2206Z

Observations et prévisions météorologiques de plus de 4000 aéroports (messages METAR et TAF).

Les stations disponibles sont représentées par des disques jaunes et rouges sur la carte.

Passer la souris dessus pour voir le nom de la station.

Cliquer dessus pour voir les observations et prévisions météorologiques.

Pour changer de carte: cliquez sur les boutons verts avec une croix noire pour zoomer, sur le bouton vert avec un tiret pour effectuer un zoom arrière, ou sur les flèches vertes pour les cartes adjacentes.


METAR-TAF: